createdAt,value
2023-03-27T00:02:51.157Z,94687.09
2023-03-27T00:07:57.749Z,94687.28
2023-03-27T00:12:59.795Z,94669.19
2023-03-27T00:18:05.119Z,94669.69
2023-03-27T00:23:07.322Z,94679.91
2023-03-27T00:28:09.851Z,94669.38
2023-03-27T00:33:12.734Z,94671.47
2023-03-27T00:38:15.576Z,94660.78
2023-03-27T00:43:30.681Z,94675.09
2023-03-27T00:48:35.716Z,94671.50
2023-03-27T00:53:37.930Z,94671.69
2023-03-27T00:58:46.647Z,94676.59
2023-03-27T01:03:49.497Z,94673.28
2023-03-27T01:08:51.870Z,94675.31
2023-03-27T01:14:24.862Z,94683.78
2023-03-27T01:20:10.158Z,94684.25
2023-03-27T01:25:30.735Z,94690.69
2023-03-27T01:30:39.744Z,94689.06
2023-03-27T01:36:09.143Z,94688.28
2023-03-27T01:41:35.477Z,94690.94
2023-03-27T01:46:51.764Z,94692.94
2023-03-27T01:52:03.094Z,94695.78
2023-03-27T01:57:08.537Z,94681.88
2023-03-27T02:02:18.250Z,94693.94
2023-03-27T02:07:28.778Z,94693.75
2023-03-27T02:12:38.368Z,94681.03
2023-03-27T02:17:58.033Z,94684.09
2023-03-27T02:23:06.608Z,94679.84
2023-03-27T02:28:11.937Z,94679.38
2023-03-27T02:33:19.844Z,94685.66
2023-03-27T02:38:31.330Z,94689.97
2023-03-27T02:43:43.462Z,94678.38
2023-03-27T02:48:59.824Z,94681.75
2023-03-27T02:54:32.649Z,94681.38
2023-03-27T02:59:42.494Z,94668.22
2023-03-27T03:04:48.254Z,94648.44
2023-03-27T03:10:03.212Z,94666.91
2023-03-27T03:15:08.780Z,94653.28
2023-03-27T03:20:13.208Z,94655.38
2023-03-27T03:25:18.049Z,94613.47
2023-03-27T03:30:20.079Z,94659.81
2023-03-27T03:35:35.079Z,94651.56
2023-03-27T03:40:43.885Z,94659.25
2023-03-27T03:45:46.280Z,94657.19
2023-03-27T03:50:49.102Z,94663.19
2023-03-27T03:55:53.604Z,94652.47
2023-03-27T04:00:57.365Z,94639.66
2023-03-27T04:06:17.736Z,94630.34
2023-03-27T04:11:22.935Z,94647.38
2023-03-27T04:16:50.461Z,94645.09
2023-03-27T04:22:02.708Z,94655.53
2023-03-27T04:27:08.880Z,94664.09
2023-03-27T04:32:29.441Z,94672.44
2023-03-27T04:37:51.686Z,94669.72
2023-03-27T04:43:13.499Z,94672.94
2023-03-27T04:48:15.999Z,94673.84
2023-03-27T04:53:23.623Z,94667.13
2023-03-27T04:58:25.997Z,94666.13
2023-03-27T05:03:30.010Z,94669.88
2023-03-27T05:08:44.169Z,94678.84
2023-03-27T05:13:57.797Z,94675.09
2023-03-27T05:19:03.909Z,94665.41
2023-03-27T05:24:15.986Z,94668.56
2023-03-27T05:29:19.695Z,94681.03
2023-03-27T05:34:30.337Z,94690.09
2023-03-27T05:39:37.020Z,94695.28
2023-03-27T05:44:43.925Z,94701.66
2023-03-27T05:49:46.509Z,94697.22
2023-03-27T05:54:48.660Z,94694.06
2023-03-27T05:59:51.185Z,94692.72
2023-03-27T06:04:56.467Z,94686.47
2023-03-27T06:10:13.781Z,94706.69
2023-03-27T06:15:19.969Z,94715.66
2023-03-27T06:20:46.881Z,94702.66
2023-03-27T06:25:49.652Z,94716.00
2023-03-27T06:30:52.455Z,94726.84
2023-03-27T06:36:07.688Z,94733.22
2023-03-27T06:41:11.808Z,94740.81
2023-03-27T06:46:45.515Z,94725.75
2023-03-27T06:51:58.386Z,94737.97
2023-03-27T06:57:01.794Z,94759.25
2023-03-27T07:02:12.552Z,94752.00
2023-03-27T07:07:41.555Z,94755.16
2023-03-27T07:12:47.445Z,94763.19
2023-03-27T07:17:57.432Z,94767.94
2023-03-27T07:23:00.518Z,94770.16
2023-03-27T07:28:28.676Z,94774.72
2023-03-27T07:33:33.093Z,94795.53
2023-03-27T07:38:36.098Z,94797.38
2023-03-27T07:43:52.523Z,94809.13
2023-03-27T07:48:57.761Z,94809.59
2023-03-27T07:54:04.812Z,94808.25
2023-03-27T07:59:12.024Z,94813.69
2023-03-27T08:04:15.568Z,94803.38
2023-03-27T08:09:30.135Z,94822.31
2023-03-27T08:14:33.814Z,94821.56
2023-03-27T08:19:46.646Z,94825.09
2023-03-27T08:24:50.892Z,94825.00
2023-03-27T08:30:00.887Z,94802.81
2023-03-27T08:35:05.730Z,94815.56
2023-03-27T08:40:14.162Z,94820.41
2023-03-27T08:45:34.370Z,94803.91
2023-03-27T08:51:00.265Z,94823.81
2023-03-27T08:56:03.746Z,94816.63
2023-03-27T09:01:30.532Z,94818.03
2023-03-27T09:06:46.159Z,94812.56
2023-03-27T09:12:03.092Z,94816.16
2023-03-27T09:17:19.308Z,94808.03
2023-03-27T09:22:32.170Z,94809.41
2023-03-27T09:27:39.968Z,94806.22
2023-03-27T09:33:05.973Z,94807.22
2023-03-27T09:38:24.961Z,94800.31
2023-03-27T09:43:33.658Z,94807.56
2023-03-27T09:48:47.118Z,94806.66
2023-03-27T09:53:58.767Z,94810.91
2023-03-27T09:59:34.917Z,94807.94
2023-03-27T10:05:12.311Z,94800.72
2023-03-27T10:10:23.159Z,94803.59
2023-03-27T10:16:04.693Z,94789.13
2023-03-27T10:21:24.913Z,94800.00
2023-03-27T10:26:31.215Z,94802.69
2023-03-27T10:31:40.341Z,94792.03
2023-03-27T10:36:47.630Z,94796.25
2023-03-27T10:41:54.294Z,94799.88
2023-03-27T10:46:56.974Z,94780.88
2023-03-27T10:52:19.738Z,94776.00
2023-03-27T10:57:42.098Z,94769.75
2023-03-27T11:03:10.597Z,94760.84
2023-03-27T11:08:19.709Z,94764.06
2023-03-27T11:13:28.108Z,94762.13
2023-03-27T11:18:39.436Z,94752.69
2023-03-27T11:23:52.773Z,94746.81
2023-03-27T11:29:21.628Z,94738.50
2023-03-27T11:34:42.968Z,94740.88
2023-03-27T11:40:24.910Z,94734.38
2023-03-27T11:45:59.409Z,94724.72
2023-03-27T11:51:16.004Z,94711.81
2023-03-27T11:56:58.247Z,94717.00
2023-03-27T12:02:49.614Z,94709.66
2023-03-27T12:08:04.988Z,94709.38
2023-03-27T12:13:18.910Z,94705.53
2023-03-27T12:18:27.428Z,94684.31
2023-03-27T12:23:47.650Z,94686.78
2023-03-27T12:29:24.476Z,94686.00
2023-03-27T12:34:54.572Z,94672.19
2023-03-27T12:40:00.952Z,94664.88
2023-03-27T12:45:16.889Z,94666.84
2023-03-27T12:50:28.458Z,94663.28
2023-03-27T12:55:40.538Z,94658.25
2023-03-27T13:01:00.597Z,94643.63
2023-03-27T13:07:06.518Z,94644.00
2023-03-27T13:12:47.334Z,94634.38
2023-03-27T13:18:10.115Z,94613.19
2023-03-27T13:23:33.066Z,94616.16
2023-03-27T13:28:37.967Z,94616.88
2023-03-27T13:34:11.702Z,94606.81
2023-03-27T13:39:21.363Z,94597.94
2023-03-27T13:44:38.268Z,94587.84
2023-03-27T13:50:05.117Z,94592.13
2023-03-27T13:55:35.132Z,94579.78
2023-03-27T14:01:09.706Z,94574.44
2023-03-27T14:06:49.372Z,94569.81
2023-03-27T14:12:07.080Z,94560.31
2023-03-27T14:17:38.188Z,94558.34
2023-03-27T14:22:45.880Z,94547.03
2023-03-27T14:27:54.310Z,94543.38
2023-03-27T14:33:06.847Z,94540.66
2023-03-27T14:38:26.920Z,94533.72
2023-03-27T14:43:30.884Z,94530.88
2023-03-27T14:55:29.862Z,94520.56
2023-03-27T15:30:32.975Z,94498.38
2023-03-27T16:12:34.553Z,94478.25
2023-03-27T16:17:42.969Z,94475.91
2023-03-27T16:22:55.268Z,94470.06
2023-03-27T16:28:02.834Z,94462.63
2023-03-27T16:33:19.450Z,94462.63
2023-03-27T16:38:21.840Z,94458.66
2023-03-27T16:43:24.273Z,94461.06
2023-03-27T16:48:26.488Z,94444.31
2023-03-27T16:53:28.534Z,94456.31
2023-03-27T16:58:31.667Z,94453.16
2023-03-27T17:03:34.152Z,94462.00
2023-03-27T17:08:37.192Z,94444.75
2023-03-27T17:13:42.914Z,94433.56
2023-03-27T17:18:46.014Z,94455.66
2023-03-27T17:23:49.010Z,94456.75
2023-03-27T17:28:51.525Z,94461.28
2023-03-27T17:33:53.655Z,94457.88
2023-03-27T17:39:02.887Z,94479.66
2023-03-27T17:44:12.057Z,94473.25
2023-03-27T17:49:14.381Z,94474.66
2023-03-27T17:54:18.143Z,94474.47
2023-03-27T17:59:21.182Z,94484.28
2023-03-27T18:04:24.617Z,94477.56
2023-03-27T18:09:28.567Z,94480.81
2023-03-27T18:14:39.209Z,94477.03
2023-03-27T18:19:44.354Z,94486.16
2023-03-27T18:24:46.561Z,94486.75
2023-03-27T18:29:49.442Z,94494.25
2023-03-27T18:34:52.575Z,94505.97
2023-03-27T18:39:54.922Z,94495.31
2023-03-27T18:44:57.228Z,94505.41
2023-03-27T18:49:59.398Z,94487.88
2023-03-27T18:55:01.677Z,94510.19
2023-03-27T19:00:09.151Z,94522.28
2023-03-27T19:05:11.705Z,94523.78
2023-03-27T19:10:14.168Z,94528.31
2023-03-27T19:15:24.975Z,94538.25
2023-03-27T19:20:35.739Z,94538.31
2023-03-27T19:26:09.260Z,94531.78
2023-03-27T19:31:12.637Z,94529.97
2023-03-27T19:36:14.820Z,94534.00
2023-03-27T19:41:17.467Z,94533.34
2023-03-27T19:46:19.704Z,94550.44
2023-03-27T19:51:26.284Z,94549.13
2023-03-27T19:56:28.523Z,94561.25
2023-03-27T20:01:32.180Z,94557.09
2023-03-27T20:06:34.595Z,94565.22
2023-03-27T20:11:38.384Z,94581.78
2023-03-27T20:16:41.929Z,94567.72
2023-03-27T20:21:44.776Z,94577.56
2023-03-27T20:26:53.634Z,94580.91
2023-03-27T20:31:58.991Z,94582.94
2023-03-27T20:37:03.736Z,94578.75
2023-03-27T20:42:18.329Z,94588.75
2023-03-27T20:47:21.555Z,94589.38
2023-03-27T20:52:23.945Z,94603.66
2023-03-27T20:57:26.146Z,94599.28
2023-03-27T21:02:28.384Z,94605.28
2023-03-27T21:07:34.346Z,94598.00
2023-03-27T21:12:36.693Z,94607.84
2023-03-27T21:17:41.534Z,94616.09
2023-03-27T21:22:43.707Z,94623.41
2023-03-27T21:27:45.664Z,94626.69
2023-03-27T21:32:49.290Z,94629.41
2023-03-27T21:37:51.421Z,94623.69
2023-03-27T21:42:54.664Z,94616.25
2023-03-27T21:47:56.906Z,94633.94
2023-03-27T21:52:59.823Z,94632.56
2023-03-27T21:58:01.798Z,94628.34
2023-03-27T22:03:03.743Z,94637.09
2023-03-27T22:08:07.854Z,94638.78
2023-03-27T22:13:10.301Z,94639.13
2023-03-27T22:18:13.870Z,94648.44
2023-03-27T22:23:17.738Z,94630.78
2023-03-27T22:28:21.166Z,94652.31
2023-03-27T22:33:23.966Z,94651.72
2023-03-27T22:38:30.732Z,94660.19
2023-03-27T22:43:33.084Z,94655.03
2023-03-27T22:48:35.619Z,94672.63
2023-03-27T22:53:38.493Z,94674.22
2023-03-27T22:58:40.857Z,94681.47
2023-03-27T23:03:42.977Z,94684.72
2023-03-27T23:08:45.085Z,94699.03
2023-03-27T23:13:50.453Z,94673.72
2023-03-27T23:19:00.617Z,94675.16
2023-03-27T23:24:06.436Z,94697.91
2023-03-27T23:29:10.432Z,94683.50
2023-03-27T23:34:15.795Z,94684.59
2023-03-27T23:39:19.566Z,94687.56
2023-03-27T23:44:22.805Z,94694.31
2023-03-27T23:49:27.249Z,94679.53
2023-03-27T23:54:32.036Z,94683.63
2023-03-27T23:59:37.898Z,94660.38
